Time;durP1;ratioP1;P1;durP2;ratioP2;P2;SDS_P1;SDS_P2;PMS_P1;PMS_P2;Temp;Humidity;BMP_temperature;BMP_pressure;BME280_temperature;BME280_humidity;BME280_pressure;Samples;Min_cycle;Max_cycle;Signal;HPM_P1;HPM_P2
2023/01/04 00:00:30;;;;;;;7.57;1.80;;;;;;;4.67;100.00;101343.69;6183191;28;20065;-85
2023/01/04 00:03:33;;;;;;;2.83;2.10;;;;;;;4.51;100.00;101340.88;6186978;28;20133;-84
2023/01/04 00:06:34;;;;;;;3.88;1.35;;;;;;;4.40;100.00;101345.63;6183518;28;20081;-85
2023/01/04 00:09:36;;;;;;;4.05;1.90;;;;;;;4.35;100.00;101344.13;6190892;28;20043;-85
2023/01/04 00:12:38;;;;;;;3.75;1.90;;;;;;;4.33;100.00;101339.09;6188376;28;20042;-85
2023/01/04 00:15:40;;;;;;;7.85;1.90;;;;;;;4.27;100.00;101329.91;6187123;28;20046;-84
2023/01/04 00:18:41;;;;;;;4.10;1.90;;;;;;;4.25;100.00;101320.63;6185869;28;20401;-85
2023/01/04 00:21:43;;;;;;;5.80;2.00;;;;;;;4.18;100.00;101326.88;6184572;28;20838;-84
2023/01/04 00:24:45;;;;;;;3.58;1.65;;;;;;;4.14;100.00;101325.31;6169582;28;20120;-85
2023/01/04 00:27:47;;;;;;;5.50;1.98;;;;;;;4.09;100.00;101323.75;6186891;28;20100;-84
2023/01/04 00:30:48;;;;;;;2.17;1.60;;;;;;;4.12;100.00;101322.81;6166465;28;20053;-85
2023/01/04 00:33:59;;;;;;;3.85;1.52;;;;;;;4.19;100.00;101311.44;6158903;28;20039;-85
2023/01/04 00:37:01;;;;;;;3.67;1.50;;;;;;;4.26;100.00;101310.28;6182845;28;20535;-85
2023/01/04 00:40:03;;;;;;;4.15;1.33;;;;;;;4.36;100.00;101294.56;6187083;28;20628;-85
2023/01/04 00:43:05;;;;;;;6.60;1.50;;;;;;;4.38;100.00;101275.66;6185664;28;20352;-84
2023/01/04 00:46:10;;;;;;;2.45;1.60;;;;;;;4.42;100.00;101264.38;6184875;28;20217;-85
2023/01/04 00:49:13;;;;;;;4.07;1.50;;;;;;;4.50;100.00;101254.63;6176598;28;20046;-85
2023/01/04 00:52:14;;;;;;;3.92;1.67;;;;;;;4.52;100.00;101242.59;6176747;28;20145;-84
2023/01/04 00:55:17;;;;;;;3.63;1.58;;;;;;;4.50;100.00;101235.88;6177048;28;20444;-85
2023/01/04 00:58:19;;;;;;;3.65;1.63;;;;;;;4.56;100.00;101222.78;6180770;28;20039;-85
2023/01/04 01:01:21;;;;;;;3.47;1.63;;;;;;;4.58;100.00;101217.59;6175224;28;20034;-84
2023/01/04 01:04:24;;;;;;;3.35;1.55;;;;;;;4.60;100.00;101215.81;6179667;28;20496;-85
2023/01/04 01:07:26;;;;;;;4.60;1.42;;;;;;;4.67;100.00;101196.66;6167693;28;20080;-85
2023/01/04 01:10:28;;;;;;;5.88;1.70;;;;;;;4.67;100.00;101179.56;6180339;28;20042;-85
2023/01/04 01:13:30;;;;;;;3.13;1.80;;;;;;;4.62;100.00;101178.94;6185242;28;20065;-84
2023/01/04 01:16:32;;;;;;;5.35;1.83;;;;;;;4.60;100.00;101183.28;6151815;28;20066;-85
2023/01/04 01:19:53;;;;;;;5.85;1.83;;;;;;;4.57;100.00;101177.44;6184369;28;20050;-85
2023/01/04 01:22:55;;;;;;;3.08;1.63;;;;;;;4.52;100.00;101165.69;6166028;28;20034;-85
2023/01/04 01:26:01;;;;;;;2.05;1.30;;;;;;;4.50;100.00;101157.22;6179578;28;20507;-85
2023/01/04 01:29:03;;;;;;;4.15;1.70;;;;;;;4.52;100.00;101165.69;6184822;28;20074;-85
2023/01/04 01:32:05;;;;;;;3.33;1.75;;;;;;;4.53;100.00;101161.38;6181874;28;20125;-85
2023/01/04 01:35:07;;;;;;;3.70;1.63;;;;;;;4.60;100.00;101152.53;6183617;28;20504;-85
2023/01/04 01:38:08;;;;;;;5.45;1.60;;;;;;;4.68;100.00;101145.31;6166488;28;20249;-86
2023/01/04 01:41:25;;;;;;;6.70;1.70;;;;;;;4.83;100.00;101133.53;6181752;28;20121;-85
2023/01/04 01:44:42;;;;;;;4.95;1.75;;;;;;;4.89;100.00;101106.78;6173951;28;20381;-85
2023/01/04 01:47:48;;;;;;;4.00;1.60;;;;;;;5.03;100.00;101104.41;6177874;28;20172;-85
2023/01/04 01:50:55;;;;;;;4.72;1.48;;;;;;;5.15;100.00;101087.63;6176165;28;20074;-85
2023/01/04 01:54:03;;;;;;;4.55;2.22;;;;;;;5.23;100.00;101084.69;6166379;28;20207;-85
2023/01/04 01:57:08;;;;;;;4.93;1.50;;;;;;;5.23;100.00;101077.81;6160922;28;20049;-85
2023/01/04 02:00:14;;;;;;;2.45;1.60;;;;;;;5.28;100.00;101068.16;6177409;28;20047;-85
2023/01/04 02:03:28;;;;;;;4.95;1.70;;;;;;;5.30;100.00;101058.66;6176811;28;20049;-85
2023/01/04 02:06:36;;;;;;;2.80;1.63;;;;;;;5.30;100.00;101048.38;6183765;28;20042;-85
2023/01/04 02:09:39;;;;;;;2.88;1.70;;;;;;;5.34;100.00;101049.06;6184935;28;20393;-84
2023/01/04 02:12:41;;;;;;;3.55;1.48;;;;;;;5.37;100.00;101046.34;6179887;28;20318;-85
2023/01/04 02:15:59;;;;;;;4.57;2.10;;;;;;;5.40;100.00;101046.19;6185676;28;20137;-85
2023/01/04 02:19:38;;;;;;;3.42;1.60;;;;;;;5.45;100.00;101031.41;6183908;28;20634;-85
2023/01/04 02:22:57;;;;;;;4.55;2.00;;;;;;;5.51;100.00;101033.66;6175301;28;20610;-85
2023/01/04 02:26:16;;;;;;;3.70;1.40;;;;;;;5.63;100.00;101014.25;6182333;28;20050;-85
2023/01/04 02:30:02;;;;;;;5.10;1.75;;;;;;;5.69;100.00;101005.38;6174128;28;20051;-85
2023/01/04 02:33:26;;;;;;;3.25;1.67;;;;;;;5.68;100.00;100985.75;6104751;29;20142;-85
2023/01/04 02:36:54;;;;;;;3.35;1.52;;;;;;;5.81;100.00;100982.50;6109234;29;20061;-85
2023/01/04 02:40:42;;;;;;;3.95;1.80;;;;;;;5.93;100.00;100967.34;6092846;29;20167;-85
2023/01/04 02:50:57;;;;;;;2.42;1.83;;;;;;;6.10;100.00;100959.59;6109296;29;20114;-85
2023/01/04 02:54:05;;;;;;;3.70;1.70;;;;;;;6.09;100.00;100950.25;6106592;29;20055;-85
2023/01/04 02:57:23;;;;;;;4.85;1.52;;;;;;;6.11;100.00;100930.44;6107362;29;20549;-85
2023/01/04 03:00:32;;;;;;;2.88;1.48;;;;;;;6.23;100.00;100929.75;6112543;29;20059;-85
2023/01/04 03:07:38;;;;;;;5.05;2.10;;;;;;;6.29;100.00;100908.03;6187403;28;20054;-85
2023/01/04 03:10:54;;;;;;;4.68;1.80;;;;;;;6.39;100.00;100901.47;6185829;28;20402;-85
2023/01/04 03:14:14;;;;;;;5.68;1.80;;;;;;;6.46;100.00;100884.78;6191407;28;20404;-85
2023/01/04 03:17:42;;;;;;;5.35;1.60;;;;;;;6.51;100.00;100875.97;6189666;28;20057;-85
2023/01/04 03:20:47;;;;;;;2.38;1.50;;;;;;;6.54;100.00;100875.81;6187576;28;20054;-85
2023/01/04 03:37:41;;;;;;;;;;;;;;;6.55;100.00;100841.47;6175066;28;20069;-85
2023/01/04 03:48:56;;;;;;;5.13;1.95;;;;;;;6.18;100.00;100826.34;6164812;28;20192;-84
2023/01/04 03:51:59;;;;;;;;;;;;;;;6.19;100.00;100816.94;6183264;28;20077;-84
2023/01/04 03:55:04;;;;;;;2.80;1.90;;;;;;;6.14;100.00;100818.94;6181669;28;19926;-84
2023/01/04 03:58:06;;;;;;;3.30;1.80;;;;;;;6.15;100.00;100813.69;6181352;28;20413;-85
2023/01/04 04:01:08;;;;;;;3.65;2.00;;;;;;;6.06;100.00;100808.22;6181917;28;20600;-85
2023/01/04 04:10:52;;;;;;;3.92;1.70;;;;;;;6.06;100.00;100816.75;6186402;28;20125;-85
2023/01/04 04:13:53;;;;;;;5.97;2.20;;;;;;;6.07;100.00;100818.44;6189715;28;20038;-87
2023/01/04 04:16:55;;;;;;;3.97;2.00;;;;;;;6.11;100.00;100794.22;6188595;28;20100;-86
2023/01/04 04:19:57;;;;;;;5.72;2.30;;;;;;;6.12;100.00;100806.16;6186835;28;20268;-86
2023/01/04 04:22:59;;;;;;;5.50;2.35;;;;;;;6.06;100.00;100787.66;6188102;28;20034;-86
2023/01/04 04:26:00;;;;;;;5.07;2.30;;;;;;;6.07;100.00;100794.47;6186823;28;20049;-86
2023/01/04 04:29:02;;;;;;;6.28;2.63;;;;;;;6.14;100.00;100791.47;6183252;28;20097;-86
2023/01/04 04:32:04;;;;;;;7.70;2.78;;;;;;;6.18;100.00;100763.84;6182493;28;20037;-87
2023/01/04 04:35:06;;;;;;;5.60;2.63;;;;;;;6.20;100.00;100767.97;6165278;28;20049;-87
2023/01/04 04:38:08;;;;;;;5.72;2.42;;;;;;;6.17;100.00;100768.16;6165131;28;20145;-87
2023/01/04 04:44:33;;;;;;;5.32;2.70;;;;;;;6.20;100.00;100760.28;6182391;28;20045;-87
2023/01/04 04:47:35;;;;;;;3.70;2.00;;;;;;;6.21;100.00;100761.94;6182731;28;20054;-87
2023/01/04 04:50:37;;;;;;;6.60;3.03;;;;;;;6.23;100.00;100760.09;6177218;28;20411;-87
2023/01/04 04:53:38;;;;;;;3.88;2.22;;;;;;;6.23;100.00;100734.38;6181102;28;20851;-87
2023/01/04 04:56:40;;;;;;;4.88;2.78;;;;;;;6.22;100.00;100757.63;6185099;28;20061;-87
2023/01/04 04:59:42;;;;;;;6.28;2.47;;;;;;;6.24;100.00;100748.91;6168222;28;20461;-87
2023/01/04 05:02:44;;;;;;;5.90;2.13;;;;;;;6.29;100.00;100746.09;6183279;28;20113;-88
2023/01/04 05:05:45;;;;;;;3.35;2.10;;;;;;;6.27;100.00;100737.63;6188863;28;20121;-87
2023/01/04 05:08:47;;;;;;;7.82;2.40;;;;;;;6.24;100.00;100728.34;6170679;28;20049;-87
2023/01/04 05:15:10;;;;;;;5.53;3.00;;;;;;;6.24;100.00;100710.34;6178567;28;20413;-87
2023/01/04 05:18:14;;;;;;;5.38;2.40;;;;;;;6.28;100.00;100692.19;6184184;28;20050;-88
2023/01/04 05:21:16;;;;;;;4.35;2.17;;;;;;;6.33;100.00;100697.88;6176528;28;20050;-87
2023/01/04 05:24:21;;;;;;;6.03;2.35;;;;;;;6.33;100.00;100693.56;6169924;28;20050;-87
2023/01/04 05:27:23;;;;;;;4.70;2.22;;;;;;;6.34;100.00;100686.69;6177383;28;20053;-86
2023/01/04 05:33:46;;;;;;;;;;;;;;;6.30;100.00;100672.34;6183015;28;20093;-88
2023/01/04 05:36:48;;;;;;;3.97;2.03;;;;;;;6.33;100.00;100667.84;6186050;28;19925;-89
2023/01/04 05:39:50;;;;;;;3.88;2.20;;;;;;;6.36;100.00;100666.84;6184664;28;20172;-89
2023/01/04 05:42:51;;;;;;;6.18;2.17;;;;;;;6.35;100.00;100654.91;6181967;28;20045;-90
2023/01/04 05:45:55;;;;;;;5.70;2.40;;;;;;;6.38;100.00;100665.81;6187154;28;20084;-90
2023/01/04 05:48:57;;;;;;;5.35;2.13;;;;;;;6.40;100.00;100652.91;6169932;28;20647;-91
2023/01/04 05:51:59;;;;;;;4.78;2.50;;;;;;;6.42;100.00;100659.59;6186100;28;20052;-91
2023/01/04 05:55:04;;;;;;;6.88;2.53;;;;;;;6.42;100.00;100661.34;6148518;28;20050;-92
2023/01/04 05:58:06;;;;;;;5.22;2.13;;;;;;;6.45;100.00;100666.31;6169493;28;20038;-92
2023/01/04 06:01:07;;;;;;;7.65;2.28;;;;;;;6.48;100.00;100655.81;6180800;28;20042;-92
2023/01/04 06:04:09;;;;;;;3.75;2.22;;;;;;;6.50;100.00;100653.19;6184185;28;20073;-91
2023/01/04 06:07:11;;;;;;;3.33;2.30;;;;;;;6.50;100.00;100655.75;6169828;28;20053;-91
2023/01/04 06:10:14;;;;;;;6.47;2.30;;;;;;;6.49;100.00;100644.63;6183585;28;20504;-91
2023/01/04 06:13:15;;;;;;;6.07;2.50;;;;;;;6.49;100.00;100652.34;6159577;28;20125;-91
2023/01/04 06:16:17;;;;;;;3.88;2.60;;;;;;;6.51;100.00;100639.38;6185506;28;20038;-91
2023/01/04 06:19:19;;;;;;;5.20;2.58;;;;;;;6.60;100.00;100633.69;6179305;28;20050;-92
2023/01/04 06:22:21;;;;;;;5.05;2.00;;;;;;;6.56;100.00;100629.66;6186730;28;20508;-91
2023/01/04 06:25:22;;;;;;;6.28;2.45;;;;;;;6.57;100.00;100626.19;6172260;28;20058;-91
2023/01/04 06:28:24;;;;;;;4.90;2.30;;;;;;;6.56;100.00;100622.78;6172013;28;20412;-90
2023/01/04 06:31:26;;;;;;;5.68;2.20;;;;;;;6.59;100.00;100625.16;6184375;28;20550;-90
2023/01/04 06:34:28;;;;;;;3.55;2.50;;;;;;;6.63;100.00;100610.34;6197637;28;20440;-90
2023/01/04 06:37:32;;;;;;;5.00;2.30;;;;;;;6.60;100.00;100584.84;6192561;28;20116;-90
2023/01/04 06:40:33;;;;;;;4.05;2.30;;;;;;;6.64;100.00;100573.44;6193254;28;20232;-90
2023/01/04 06:43:35;;;;;;;3.60;2.22;;;;;;;6.63;100.00;100561.50;6191963;28;20043;-90
2023/01/04 06:46:37;;;;;;;3.20;2.15;;;;;;;6.62;100.00;100563.25;6190204;28;20030;-90
2023/01/04 06:49:39;;;;;;;3.63;2.28;;;;;;;6.63;100.00;100564.06;6191548;28;20511;-89
2023/01/04 06:52:41;;;;;;;2.58;1.83;;;;;;;6.66;100.00;100566.47;6193398;28;20046;-90
2023/01/04 06:55:44;;;;;;;3.63;1.73;;;;;;;6.69;100.00;100549.09;6192510;28;20042;-90
2023/01/04 06:58:46;;;;;;;2.85;2.08;;;;;;;6.72;100.00;100560.09;6174412;28;20054;-90
2023/01/04 07:01:48;;;;;;;3.30;1.80;;;;;;;6.71;100.00;100584.16;6181017;28;20507;-90
2023/01/04 07:04:49;;;;;;;2.80;1.88;;;;;;;6.78;100.00;100583.72;6190527;28;20043;-90
2023/01/04 07:07:51;;;;;;;4.07;1.98;;;;;;;6.79;100.00;100576.81;6190984;28;20042;-90
2023/01/04 07:10:53;;;;;;;2.88;1.60;;;;;;;6.85;100.00;100566.13;6190836;28;20042;-90
2023/01/04 07:13:55;;;;;;;4.50;1.98;;;;;;;6.82;100.00;100556.84;6172357;28;20050;-91
2023/01/04 07:16:59;;;;;;;1.80;1.48;;;;;;;6.93;100.00;100530.44;6191644;28;20038;-89
2023/01/04 07:20:02;;;;;;;3.05;1.88;;;;;;;6.95;100.00;100553.50;6173230;28;20061;-90
2023/01/04 07:23:05;;;;;;;3.08;1.60;;;;;;;6.93;100.00;100539.91;6190428;28;20061;-90
2023/01/04 07:26:07;;;;;;;4.43;1.92;;;;;;;6.99;100.00;100532.63;6190994;28;20034;-90
2023/01/04 07:29:13;;;;;;;4.72;1.85;;;;;;;7.09;100.00;100562.00;6190777;28;20910;-90
2023/01/04 07:32:17;;;;;;;3.58;1.80;;;;;;;7.09;100.00;100545.75;6179706;28;20051;-90
2023/01/04 07:35:20;;;;;;;3.40;1.70;;;;;;;7.09;100.00;100538.84;6173581;28;20042;-89
2023/01/04 07:38:22;;;;;;;2.28;1.70;;;;;;;7.12;100.00;100528.34;6190804;28;20473;-89
2023/01/04 07:41:23;;;;;;;3.05;1.80;;;;;;;7.15;100.00;100537.59;6190355;28;20091;-90
2023/01/04 07:44:26;;;;;;;2.80;1.70;;;;;;;7.18;100.00;100539.16;6171856;28;20520;-90
2023/01/04 07:47:28;;;;;;;3.88;1.67;;;;;;;7.28;100.00;100524.78;6186407;28;20189;-89
2023/01/04 07:50:30;;;;;;;2.83;1.60;;;;;;;7.33;100.00;100509.88;6167659;28;20047;-89
2023/01/04 07:53:33;;;;;;;2.95;1.63;;;;;;;7.36;100.00;100509.66;6178102;28;20504;-89
2023/01/04 07:56:34;;;;;;;3.15;1.83;;;;;;;7.43;100.00;100517.78;6168246;28;20140;-89
2023/01/04 07:59:36;;;;;;;2.22;1.50;;;;;;;7.42;100.00;100526.44;6185964;28;20079;-90
2023/01/04 08:02:38;;;;;;;3.88;1.90;;;;;;;7.41;100.00;100523.06;6169844;28;20043;-90
2023/01/04 08:05:41;;;;;;;3.20;1.92;;;;;;;7.42;100.00;100540.16;6189142;28;20050;-89
2023/01/04 08:08:43;;;;;;;2.78;1.80;;;;;;;7.41;100.00;100545.41;6189680;28;20038;-90
2023/01/04 08:11:45;;;;;;;2.80;1.70;;;;;;;7.43;100.00;100544.38;6185638;28;20070;-89
2023/01/04 08:14:48;;;;;;;3.53;1.88;;;;;;;7.47;100.00;100558.69;6168502;28;20408;-89
2023/01/04 08:17:50;;;;;;;2.70;1.65;;;;;;;7.51;100.00;100557.56;6189938;28;20038;-89
2023/01/04 08:21:07;;;;;;;2.45;1.52;;;;;;;7.53;100.00;100553.16;6177007;28;20043;-89
2023/01/04 08:24:11;;;;;;;2.75;1.50;;;;;;;7.57;100.00;100553.75;6169282;28;20047;-90
2023/01/04 08:27:13;;;;;;;4.20;1.70;;;;;;;7.58;100.00;100554.59;6186569;28;20491;-89
2023/01/04 08:30:14;;;;;;;5.45;1.95;;;;;;;7.55;100.00;100553.03;6181195;28;20100;-89
2023/01/04 08:33:16;;;;;;;2.20;1.67;;;;;;;7.60;100.00;100555.31;6171493;28;20441;-89
2023/01/04 08:36:21;;;;;;;2.95;1.70;;;;;;;7.64;100.00;100562.75;6188881;28;20038;-89
2023/01/04 08:39:32;;;;;;;1.50;1.40;;;;;;;7.60;100.00;100545.81;6189887;28;20051;-89
2023/01/04 08:42:33;;;;;;;2.80;1.73;;;;;;;7.58;100.00;100532.25;6176327;28;20267;-89
2023/01/04 08:45:35;;;;;;;1.58;1.20;;;;;;;7.61;100.00;100544.09;6154983;28;20429;-89
2023/01/04 08:48:38;;;;;;;1.80;1.40;;;;;;;7.66;100.00;100536.88;6169894;28;20045;-89
2023/01/04 08:51:40;;;;;;;2.53;1.52;;;;;;;7.67;100.00;100517.91;6168150;28;20039;-87
2023/01/04 08:54:42;;;;;;;2.50;1.63;;;;;;;7.64;100.00;100507.81;6167936;28;20038;-87
2023/01/04 08:57:44;;;;;;;3.45;1.40;;;;;;;7.62;100.00;100492.47;6163878;28;20042;-88
2023/01/04 09:00:46;;;;;;;2.75;1.42;;;;;;;7.66;100.00;100503.41;6173455;28;20781;-91
2023/01/04 09:03:47;;;;;;;4.18;1.40;;;;;;;7.66;100.00;100499.06;6168108;28;20077;-94
2023/01/04 09:06:49;;;;;;;3.58;1.00;;;;;;;7.73;100.00;100502.88;6150645;28;20046;-94
2023/01/04 09:09:51;;;;;;;1.33;0.93;;;;;;;7.78;100.00;100530.91;6164808;28;20524;-94
2023/01/04 09:12:53;;;;;;;1.00;0.90;;;;;;;7.84;100.00;100529.69;6184548;28;20038;-94
2023/01/04 09:15:59;;;;;;;2.08;0.93;;;;;;;7.92;100.00;100535.94;6168176;28;20050;-93
2023/01/04 09:19:01;;;;;;;1.58;0.82;;;;;;;7.93;100.00;100547.91;6156424;28;20084;-93
2023/01/04 09:22:03;;;;;;;1.10;0.98;;;;;;;7.94;100.00;100531.50;6167840;28;20478;-92
2023/01/04 09:25:05;;;;;;;0.70;0.70;;;;;;;7.97;100.00;100539.06;6175563;28;20034;-93
2023/01/04 09:28:07;;;;;;;0.77;0.52;;;;;;;8.01;100.00;100539.66;6176896;28;20053;-93
2023/01/04 09:31:15;;;;;;;1.67;0.80;;;;;;;8.09;100.00;100542.53;6170437;28;20049;-94
2023/01/04 09:34:16;;;;;;;0.70;0.70;;;;;;;8.10;100.00;100525.31;6175660;28;20416;-93
2023/01/04 09:37:19;;;;;;;1.83;0.80;;;;;;;8.19;100.00;100524.69;6161972;28;20113;-93
2023/01/04 09:40:26;;;;;;;1.15;1.02;;;;;;;8.18;100.00;100510.97;6169094;28;20512;-93
2023/01/04 09:43:58;;;;;;;0.80;0.80;;;;;;;8.23;100.00;100510.66;6174703;28;20042;-94
2023/01/04 09:47:31;;;;;;;0.93;0.80;;;;;;;8.25;100.00;100510.53;6069376;29;20070;-94
2023/01/04 09:50:44;;;;;;;1.88;0.90;;;;;;;8.30;100.00;100505.91;6074199;29;20510;-94
2023/01/04 09:53:54;;;;;;;0.82;0.70;;;;;;;8.38;100.00;100509.59;6071868;29;20063;-93
2023/01/04 09:56:58;;;;;;;0.60;0.60;;;;;;;8.40;100.00;100497.44;6069216;29;20057;-94
2023/01/04 10:00:29;;;;;;;1.20;0.80;;;;;;;8.52;100.00;100494.91;6063768;29;20052;-93
2023/01/04 10:03:34;;;;;;;0.90;0.80;;;;;;;8.63;100.00;100476.94;6070743;29;20473;-93
2023/01/04 10:06:37;;;;;;;0.68;0.68;;;;;;;8.71;100.00;100479.78;6082695;29;20051;-93
2023/01/04 10:09:38;;;;;;;1.92;0.70;;;;;;;8.80;100.00;100455.06;6086521;29;20124;-93
2023/01/04 10:12:59;;;;;;;2.10;0.70;;;;;;;8.88;100.00;100450.16;6086871;29;20194;-92
2023/01/04 10:16:19;;;;;;;0.85;0.80;;;;;;;8.97;100.00;100428.84;6082698;29;20076;-92
2023/01/04 10:20:02;;;;;;;0.63;0.60;;;;;;;9.05;100.00;100426.50;6073963;29;20431;-91
2023/01/04 10:23:24;;;;;;;0.50;0.50;;;;;;;9.21;100.00;100423.59;6098772;29;20059;-91
2023/01/04 10:26:47;;;;;;;1.42;0.52;;;;;;;9.33;100.00;100403.78;6111709;29;20052;-92
2023/01/04 10:29:51;;;;;;;0.80;0.50;;;;;;;9.45;100.00;100399.44;6112463;29;20048;-92
2023/01/04 10:33:46;;;;;;;0.82;0.50;;;;;;;9.60;100.00;100380.19;6112685;29;20139;-93
2023/01/04 10:36:50;;;;;;;0.50;0.40;;;;;;;9.71;100.00;100384.50;6027109;29;20060;-94
2023/01/04 10:39:54;;;;;;;0.70;0.40;;;;;;;9.68;100.00;100375.22;6058736;29;20442;-93
2023/01/04 10:43:04;;;;;;;0.40;0.40;;;;;;;9.53;100.00;100366.09;6095043;29;20048;-94
2023/01/04 10:46:13;;;;;;;0.50;0.50;;;;;;;9.38;100.00;100367.28;6089940;29;20538;-93
2023/01/04 10:49:52;;;;;;;0.40;0.40;;;;;;;9.23;100.00;100374.44;6085699;29;20488;-94
2023/01/04 10:53:11;;;;;;;0.43;0.43;;;;;;;9.12;100.00;100390.75;5993946;29;20094;-91
2023/01/04 10:56:28;;;;;;;1.65;0.52;;;;;;;9.09;100.00;100382.38;5976230;29;20479;-90
2023/01/04 10:59:51;;;;;;;0.65;0.40;;;;;;;9.09;100.00;100410.78;5993174;29;20513;-90
2023/01/04 11:03:04;;;;;;;0.40;0.40;;;;;;;9.06;100.00;100388.59;5994798;29;20069;-86
2023/01/04 11:06:22;;;;;;;4.40;0.50;;;;;;;9.15;100.00;100385.34;6004845;29;20053;-85
2023/01/04 11:09:31;;;;;;;0.60;0.60;;;;;;;9.25;100.00;100394.03;6001677;29;20102;-87
2023/01/04 11:12:33;;;;;;;0.65;0.30;;;;;;;9.40;100.00;100376.56;6045005;29;20679;-86
2023/01/04 11:15:35;;;;;;;0.63;0.30;;;;;;;9.56;100.00;100373.59;6053403;29;20061;-88
2023/01/04 11:18:41;;;;;;;0.75;0.30;;;;;;;9.60;100.00;100363.88;6064361;29;20048;-87
2023/01/04 11:22:21;;;;;;;0.82;0.82;;;;;;;9.56;100.00;100352.09;6067216;29;20511;-88
2023/01/04 11:25:25;;;;;;;0.55;0.40;;;;;;;9.64;100.00;100349.78;6061231;29;20053;-87
2023/01/04 11:28:50;;;;;;;0.28;0.25;;;;;;;9.69;100.00;100345.88;6092796;28;20055;-88
2023/01/04 11:31:56;;;;;;;0.30;0.30;;;;;;;9.78;100.00;100343.50;6184574;28;20378;-89
2023/01/04 11:34:58;;;;;;;0.20;0.20;;;;;;;9.79;100.00;100332.22;6166258;28;20039;-89
2023/01/04 11:38:11;;;;;;;0.20;0.20;;;;;;;9.72;100.00;100334.47;6185257;28;20046;-90
2023/01/04 11:41:15;;;;;;;0.30;0.30;;;;;;;9.78;100.00;100330.59;6160639;28;20054;-90
2023/01/04 11:44:18;;;;;;;0.30;0.30;;;;;;;9.73;100.00;100343.03;6164693;28;20042;-90
2023/01/04 11:47:23;;;;;;;0.20;0.20;;;;;;;9.67;100.00;100334.03;6160754;28;20046;-91
2023/01/04 11:50:44;;;;;;;0.20;0.20;;;;;;;9.70;100.00;100303.56;6177076;28;20488;-91
2023/01/04 11:53:56;;;;;;;0.22;0.22;;;;;;;9.77;100.00;100310.84;6176854;28;20054;-92
2023/01/04 11:57:05;;;;;;;0.20;0.20;;;;;;;9.70;100.00;100313.91;6163382;28;20149;-93
2023/01/04 12:00:16;;;;;;;1.02;0.30;;;;;;;9.72;100.00;100315.56;6183959;28;20046;-93
2023/01/04 12:03:31;;;;;;;0.20;0.20;;;;;;;9.79;100.00;100316.72;6181087;28;20069;-95
2023/01/04 12:06:49;;;;;;;0.32;0.30;;;;;;;9.84;100.00;100304.25;6171320;28;20083;-94
2023/01/04 12:09:50;;;;;;;0.20;0.20;;;;;;;9.81;100.00;100309.66;6180735;28;20413;-92
2023/01/04 12:12:54;;;;;;;0.20;0.20;;;;;;;9.85;100.00;100290.38;6188359;28;20047;-94
2023/01/04 12:16:25;;;;;;;0.40;0.30;;;;;;;9.97;100.00;100291.19;6171163;28;20419;-94
2023/01/04 12:19:27;;;;;;;0.30;0.30;;;;;;;10.02;100.00;100284.69;6173850;28;20117;-94
2023/01/04 12:22:36;;;;;;;0.20;0.20;;;;;;;10.08;100.00;100279.00;6164990;28;20047;-94
2023/01/04 12:25:44;;;;;;;1.38;0.20;;;;;;;10.13;100.00;100269.09;6168565;28;20059;-93
2023/01/04 12:29:22;;;;;;;0.45;0.30;;;;;;;10.16;100.00;100286.16;6152942;28;20312;-93
2023/01/04 12:32:24;;;;;;;0.22;0.22;;;;;;;10.17;100.00;100272.28;6097165;29;20099;-93
2023/01/04 12:36:07;;;;;;;0.20;0.20;;;;;;;10.13;100.00;100273.47;6099629;29;20051;-94
2023/01/04 12:39:12;;;;;;;0.40;0.40;;;;;;;10.04;100.00;100256.13;6038963;29;20519;-93
2023/01/04 12:42:18;;;;;;;0.30;0.28;;;;;;;10.03;100.00;100244.13;6037085;29;20402;-93
2023/01/04 12:45:21;;;;;;;0.40;0.40;;;;;;;10.01;100.00;100256.34;6036816;29;20056;-93
2023/01/04 12:52:08;;;;;;;0.50;0.30;;;;;;;10.05;100.00;100260.34;6041938;29;20071;-93
2023/01/04 12:55:30;;;;;;;0.30;0.30;;;;;;;9.99;100.00;100251.31;6038415;29;20523;-92
2023/01/04 12:58:32;;;;;;;0.40;0.40;;;;;;;9.96;100.00;100255.91;6040799;29;20052;-93
2023/01/04 13:02:18;;;;;;;0.30;0.30;;;;;;;10.03;100.00;100257.06;6021282;29;20519;-93
2023/01/04 13:05:20;;;;;;;0.40;0.40;;;;;;;10.05;100.00;100261.16;6036409;29;20063;-91
2023/01/04 13:08:44;;;;;;;0.28;0.28;;;;;;;10.08;100.00;100250.56;6083578;29;20056;-92
2023/01/04 13:12:23;;;;;;;0.40;0.40;;;;;;;10.07;100.00;100242.94;6094941;29;20536;-92
2023/01/04 13:15:44;;;;;;;0.30;0.30;;;;;;;10.07;100.00;100248.13;6123789;28;20065;-91
2023/01/04 13:19:00;;;;;;;0.32;0.32;;;;;;;10.08;100.00;100239.41;6188866;28;20030;-91
2023/01/04 13:22:11;;;;;;;0.98;0.40;;;;;;;10.11;100.00;100233.97;6170955;28;20472;-92
2023/01/04 13:25:17;;;;;;;0.40;0.40;;;;;;;10.11;100.00;100246.91;6188607;28;20090;-92
2023/01/04 13:28:22;;;;;;;0.60;0.57;;;;;;;10.11;100.00;100234.81;6189172;28;20088;-92
2023/01/04 13:31:24;;;;;;;0.63;0.40;;;;;;;10.14;100.00;100236.31;6185001;28;20070;-92
2023/01/04 13:34:34;;;;;;;2.47;0.52;;;;;;;10.12;100.00;100227.88;6171909;28;20534;-92
2023/01/04 13:37:55;;;;;;;0.40;0.40;;;;;;;10.14;100.00;100237.13;6187231;28;20047;-92
2023/01/04 13:40:57;;;;;;;0.85;0.65;;;;;;;10.14;100.00;100234.56;6185420;28;20392;-92
2023/01/04 13:44:25;;;;;;;0.50;0.50;;;;;;;10.16;100.00;100224.09;6163276;28;20047;-92
2023/01/04 13:48:07;;;;;;;0.70;0.60;;;;;;;10.19;100.00;100225.59;6170772;28;20049;-92
2023/01/04 13:51:38;;;;;;;0.82;0.73;;;;;;;10.11;100.00;100221.03;6184331;28;20034;-92
2023/01/04 13:54:40;;;;;;;0.65;0.50;;;;;;;10.11;100.00;100233.97;6181314;28;20047;-91
2023/01/04 13:58:02;;;;;;;0.55;0.55;;;;;;;10.15;100.00;100240.53;6179044;28;20556;-92
2023/01/04 14:01:13;;;;;;;0.70;0.70;;;;;;;10.11;100.00;100234.81;6165350;28;20530;-93
2023/01/04 14:04:27;;;;;;;1.17;0.52;;;;;;;10.14;100.00;100234.56;6155566;28;20046;-91
2023/01/04 14:07:29;;;;;;;1.00;0.50;;;;;;;10.18;100.00;100208.44;6144796;28;20053;-91
2023/01/04 14:10:32;;;;;;;0.70;0.70;;;;;;;10.14;100.00;100205.28;6156798;28;20050;-91
2023/01/04 14:13:34;;;;;;;1.08;0.50;;;;;;;10.12;100.00;100195.06;6168894;28;20046;-91
2023/01/04 14:16:36;;;;;;;0.57;0.50;;;;;;;10.10;100.00;100209.88;6175591;28;20114;-91
2023/01/04 14:19:59;;;;;;;0.90;0.80;;;;;;;10.13;100.00;100206.22;6168555;28;20516;-92
2023/01/04 14:23:01;;;;;;;0.60;0.60;;;;;;;10.14;100.00;100198.34;6176406;28;20070;-91
2023/01/04 14:26:03;;;;;;;1.20;0.77;;;;;;;10.17;100.00;100211.97;6177923;28;20053;-91
2023/01/04 14:29:21;;;;;;;0.75;0.75;;;;;;;10.21;100.00;100203.00;6180960;28;20042;-90
2023/01/04 14:32:24;;;;;;;1.38;0.82;;;;;;;10.24;100.00;100198.41;6166794;28;20197;-91
2023/01/04 14:35:28;;;;;;;0.90;0.90;;;;;;;10.27;100.00;100205.09;6181477;28;20047;-92
2023/01/04 14:38:35;;;;;;;0.85;0.85;;;;;;;10.31;100.00;100203.91;6169833;28;20038;-91
2023/01/04 14:41:56;;;;;;;1.55;1.10;;;;;;;10.30;100.00;100199.69;6166317;28;20050;-93
2023/01/04 14:44:58;;;;;;;0.98;0.90;;;;;;;10.34;100.00;100208.84;6175921;28;20046;-91
2023/01/04 14:48:00;;;;;;;1.58;1.48;;;;;;;10.29;100.00;100203.22;6161880;28;20042;-90
2023/01/04 14:51:03;;;;;;;2.58;1.45;;;;;;;10.28;100.00;100193.81;6184060;28;20157;-91
2023/01/04 14:54:06;;;;;;;1.67;1.58;;;;;;;10.27;100.00;100203.31;6161289;28;20659;-91
2023/01/04 14:57:09;;;;;;;3.35;1.67;;;;;;;10.30;100.00;100197.91;6167665;28;20089;-89
2023/01/04 15:00:17;;;;;;;2.50;2.30;;;;;;;10.32;100.00;100203.78;6179650;28;20322;-88
2023/01/04 15:03:20;;;;;;;3.28;2.05;;;;;;;10.35;100.00;100203.53;6179868;28;20046;-89
2023/01/04 15:06:22;;;;;;;2.53;2.13;;;;;;;10.34;100.00;100201.91;6175584;28;20042;-87
2023/01/04 15:09:25;;;;;;;3.42;1.83;;;;;;;10.35;100.00;100195.75;6178140;28;20065;-87
2023/01/04 15:12:27;;;;;;;2.15;1.95;;;;;;;10.44;100.00;100178.66;6183265;28;20038;-89
2023/01/04 15:15:31;;;;;;;6.63;2.25;;;;;;;10.49;100.00;100201.56;6178689;28;20050;-90
2023/01/04 15:18:33;;;;;;;1.83;1.70;;;;;;;10.50;100.00;100174.72;6183357;28;20046;-93
2023/01/04 15:21:35;;;;;;;3.53;2.13;;;;;;;10.49;100.00;100176.50;6180485;28;20092;-91
2023/01/04 15:24:41;;;;;;;3.15;1.92;;;;;;;10.47;100.00;100164.66;6180901;28;20408;-91